Terminal Aerodrome Forecast
Issued by NWS

Home | Current Version | Previous Version | Text Only | Print | Product List | Glossary On
Versions: 1 2 3 4 5 6 7 8 9 10 11 12 13 14 15 16 17 18 19 20 21
000
FTUS46 KHNX 311552 AAB
TAFBFL
TAF AMD
KBFL 311552Z 3116/0112 00000KT 2SM BR SCT150
     FM311900 VRB04KT 6SM HZ FEW200
     FM010300 VRB03KT 3SM BR SKC
     FM011000 00000KT 1SM BR SKC=

USA.gov is the U.S. government's official web portal to all federal, state and local government web resources and services.